sensor_id;sensor_type;location;lat;lon;timestamp;pressure;altitude;pressure_sealevel;temperature;humidity
81509;BME280;70930;52.412;13.554;2023-12-14T00:00:40;100092.78;;;3.92;100.00
81509;BME280;70930;52.412;13.554;2023-12-14T00:03:05;100089.56;;;3.80;100.00
81509;BME280;70930;52.412;13.554;2023-12-14T00:05:31;100089.47;;;3.72;100.00
81509;BME280;70930;52.412;13.554;2023-12-14T00:07:56;100105.09;;;3.74;100.00
81509;BME280;70930;52.412;13.554;2023-12-14T00:10:21;100100.31;;;3.87;100.00
81509;BME280;70930;52.412;13.554;2023-12-14T00:12:47;100110.53;;;3.90;100.00
81509;BME280;70930;52.412;13.554;2023-12-14T00:15:14;100110.38;;;3.91;100.00
81509;BME280;70930;52.412;13.554;2023-12-14T00:17:39;100116.78;;;3.79;100.00
81509;BME280;70930;52.412;13.554;2023-12-14T00:20:05;100117.25;;;3.92;100.00
81509;BME280;70930;52.412;13.554;2023-12-14T00:22:31;100132.69;;;4.05;100.00
81509;BME280;70930;52.412;13.554;2023-12-14T00:24:56;100122.75;;;3.81;100.00
81509;BME280;70930;52.412;13.554;2023-12-14T00:27:21;100129.34;;;3.85;100.00
81509;BME280;70930;52.412;13.554;2023-12-14T00:29:47;100133.88;;;3.93;100.00
81509;BME280;70930;52.412;13.554;2023-12-14T00:32:12;100138.81;;;3.96;100.00
81509;BME280;70930;52.412;13.554;2023-12-14T00:34:37;100139.50;;;3.98;100.00
81509;BME280;70930;52.412;13.554;2023-12-14T00:37:03;100146.25;;;4.01;100.00
81509;BME280;70930;52.412;13.554;2023-12-14T00:39:28;100152.03;;;4.04;100.00
81509;BME280;70930;52.412;13.554;2023-12-14T00:41:53;100159.44;;;3.91;100.00
81509;BME280;70930;52.412;13.554;2023-12-14T00:44:19;100163.50;;;4.13;100.00
81509;BME280;70930;52.412;13.554;2023-12-14T00:46:44;100153.09;;;4.11;99.57
81509;BME280;70930;52.412;13.554;2023-12-14T00:49:09;100163.97;;;3.99;99.89
81509;BME280;70930;52.412;13.554;2023-12-14T00:51:35;100169.94;;;4.18;99.30
81509;BME280;70930;52.412;13.554;2023-12-14T00:54:00;100164.88;;;3.89;100.00
81509;BME280;70930;52.412;13.554;2023-12-14T00:56:25;100169.03;;;3.82;100.00
81509;BME280;70930;52.412;13.554;2023-12-14T00:58:51;100175.13;;;3.83;99.99
81509;BME280;70930;52.412;13.554;2023-12-14T01:01:16;100179.19;;;3.95;100.00
81509;BME280;70930;52.412;13.554;2023-12-14T01:03:42;100182.53;;;3.97;99.46
81509;BME280;70930;52.412;13.554;2023-12-14T01:06:07;100185.72;;;3.91;100.00
81509;BME280;70930;52.412;13.554;2023-12-14T01:08:32;100179.00;;;3.79;99.77
81509;BME280;70930;52.412;13.554;2023-12-14T01:10:58;100189.50;;;3.79;99.80
81509;BME280;70930;52.412;13.554;2023-12-14T01:13:23;100196.47;;;3.60;100.00
81509;BME280;70930;52.412;13.554;2023-12-14T01:15:48;100199.63;;;3.74;100.00
81509;BME280;70930;52.412;13.554;2023-12-14T01:18:14;100208.75;;;3.69;100.00
81509;BME280;70930;52.412;13.554;2023-12-14T01:20:39;100210.03;;;3.56;100.00
81509;BME280;70930;52.412;13.554;2023-12-14T01:23:04;100222.31;;;3.65;100.00
81509;BME280;70930;52.412;13.554;2023-12-14T01:25:30;100223.13;;;3.65;100.00
81509;BME280;70930;52.412;13.554;2023-12-14T01:27:55;100230.50;;;3.62;100.00
81509;BME280;70930;52.412;13.554;2023-12-14T01:30:20;100229.41;;;3.55;100.00
81509;BME280;70930;52.412;13.554;2023-12-14T01:32:46;100237.38;;;3.63;100.00
81509;BME280;70930;52.412;13.554;2023-12-14T01:35:14;100243.50;;;3.54;100.00
81509;BME280;70930;52.412;13.554;2023-12-14T01:37:39;100247.22;;;3.51;100.00
81509;BME280;70930;52.412;13.554;2023-12-14T01:40:05;100247.53;;;3.38;100.00
81509;BME280;70930;52.412;13.554;2023-12-14T01:42:31;100253.34;;;3.42;100.00
81509;BME280;70930;52.412;13.554;2023-12-14T01:44:56;100257.91;;;3.30;100.00
81509;BME280;70930;52.412;13.554;2023-12-14T01:47:21;100248.81;;;3.15;100.00
81509;BME280;70930;52.412;13.554;2023-12-14T01:49:47;100258.44;;;3.24;100.00
81509;BME280;70930;52.412;13.554;2023-12-14T01:52:12;100256.13;;;3.11;100.00
81509;BME280;70930;52.412;13.554;2023-12-14T01:54:37;100266.34;;;3.05;100.00
81509;BME280;70930;52.412;13.554;2023-12-14T01:57:03;100263.56;;;3.06;100.00
81509;BME280;70930;52.412;13.554;2023-12-14T01:59:28;100268.97;;;3.14;100.00
81509;BME280;70930;52.412;13.554;2023-12-14T02:01:55;100276.84;;;3.14;100.00
81509;BME280;70930;52.412;13.554;2023-12-14T02:04:23;100265.50;;;3.04;100.00
81509;BME280;70930;52.412;13.554;2023-12-14T02:06:49;100279.59;;;3.13;100.00
81509;BME280;70930;52.412;13.554;2023-12-14T02:09:14;100285.13;;;3.19;99.83
81509;BME280;70930;52.412;13.554;2023-12-14T02:11:40;100266.75;;;3.00;100.00
81509;BME280;70930;52.412;13.554;2023-12-14T02:14:06;100283.03;;;3.04;100.00
81509;BME280;70930;52.412;13.554;2023-12-14T02:16:31;100285.41;;;3.07;100.00
81509;BME280;70930;52.412;13.554;2023-12-14T02:18:57;100281.66;;;2.90;100.00
81509;BME280;70930;52.412;13.554;2023-12-14T02:21:22;100284.97;;;2.92;100.00
81509;BME280;70930;52.412;13.554;2023-12-14T02:23:48;100277.50;;;2.78;100.00
81509;BME280;70930;52.412;13.554;2023-12-14T02:26:13;100293.50;;;2.94;100.00
81509;BME280;70930;52.412;13.554;2023-12-14T02:28:39;100284.56;;;2.97;100.00
81509;BME280;70930;52.412;13.554;2023-12-14T02:31:05;100282.34;;;3.02;100.00
81509;BME280;70930;52.412;13.554;2023-12-14T02:33:30;100280.97;;;3.07;100.00
81509;BME280;70930;52.412;13.554;2023-12-14T02:35:55;100290.34;;;3.10;100.00
81509;BME280;70930;52.412;13.554;2023-12-14T02:38:21;100292.44;;;3.16;99.83
81509;BME280;70930;52.412;13.554;2023-12-14T02:40:46;100306.78;;;3.12;99.96
81509;BME280;70930;52.412;13.554;2023-12-14T02:43:12;100301.94;;;2.88;100.00
81509;BME280;70930;52.412;13.554;2023-12-14T02:45:37;100303.31;;;2.73;100.00
81509;BME280;70930;52.412;13.554;2023-12-14T02:48:02;100305.94;;;2.73;100.00
81509;BME280;70930;52.412;13.554;2023-12-14T02:50:28;100307.97;;;2.69;100.00
81509;BME280;70930;52.412;13.554;2023-12-14T02:52:53;100307.94;;;2.59;100.00
81509;BME280;70930;52.412;13.554;2023-12-14T02:55:18;100313.59;;;2.55;100.00
81509;BME280;70930;52.412;13.554;2023-12-14T02:57:44;100316.78;;;2.49;100.00
81509;BME280;70930;52.412;13.554;2023-12-14T03:00:10;100309.91;;;2.67;100.00
81509;BME280;70930;52.412;13.554;2023-12-14T03:02:36;100311.59;;;2.78;100.00
81509;BME280;70930;52.412;13.554;2023-12-14T03:05:02;100323.72;;;2.69;100.00
81509;BME280;70930;52.412;13.554;2023-12-14T03:07:27;100324.38;;;2.71;100.00
81509;BME280;70930;52.412;13.554;2023-12-14T03:09:52;100327.88;;;2.81;100.00
81509;BME280;70930;52.412;13.554;2023-12-14T03:12:17;100335.75;;;2.81;100.00
81509;BME280;70930;52.412;13.554;2023-12-14T03:14:43;100332.97;;;2.83;100.00
81509;BME280;70930;52.412;13.554;2023-12-14T03:17:08;100332.44;;;2.99;100.00
81509;BME280;70930;52.412;13.554;2023-12-14T03:19:40;100337.31;;;3.13;100.00
81509;BME280;70930;52.412;13.554;2023-12-14T03:22:06;100342.00;;;3.09;98.99
81509;BME280;70930;52.412;13.554;2023-12-14T03:24:32;100350.59;;;2.71;100.00
81509;BME280;70930;52.412;13.554;2023-12-14T03:26:57;100353.47;;;2.58;100.00
81509;BME280;70930;52.412;13.554;2023-12-14T03:29:23;100358.22;;;2.74;100.00
81509;BME280;70930;52.412;13.554;2023-12-14T03:31:48;100366.00;;;2.95;100.00
81509;BME280;70930;52.412;13.554;2023-12-14T03:34:13;100366.13;;;2.84;100.00
81509;BME280;70930;52.412;13.554;2023-12-14T03:36:39;100362.16;;;2.99;100.00
81509;BME280;70930;52.412;13.554;2023-12-14T03:39:04;100364.84;;;2.78;100.00
81509;BME280;70930;52.412;13.554;2023-12-14T03:41:29;100366.94;;;2.84;100.00
81509;BME280;70930;52.412;13.554;2023-12-14T03:43:55;100371.78;;;2.99;100.00
81509;BME280;70930;52.412;13.554;2023-12-14T03:46:20;100370.13;;;2.98;99.98
81509;BME280;70930;52.412;13.554;2023-12-14T03:48:45;100378.19;;;3.15;99.50
81509;BME280;70930;52.412;13.554;2023-12-14T03:51:11;100390.03;;;3.00;99.86
81509;BME280;70930;52.412;13.554;2023-12-14T03:53:36;100380.19;;;2.83;100.00
81509;BME280;70930;52.412;13.554;2023-12-14T03:56:01;100389.84;;;2.82;100.00
81509;BME280;70930;52.412;13.554;2023-12-14T03:58:27;100388.75;;;2.85;100.00
81509;BME280;70930;52.412;13.554;2023-12-14T04:00:52;100392.50;;;2.92;100.00
81509;BME280;70930;52.412;13.554;2023-12-14T04:03:18;100398.84;;;2.89;100.00
81509;BME280;70930;52.412;13.554;2023-12-14T04:05:43;100397.66;;;3.13;99.99
81509;BME280;70930;52.412;13.554;2023-12-14T04:08:09;100402.47;;;3.17;99.65
81509;BME280;70930;52.412;13.554;2023-12-14T04:10:35;100413.28;;;3.14;99.33
81509;BME280;70930;52.412;13.554;2023-12-14T04:13:00;100400.63;;;2.99;99.91
81509;BME280;70930;52.412;13.554;2023-12-14T04:15:26;100415.94;;;2.84;100.00
81509;BME280;70930;52.412;13.554;2023-12-14T04:17:51;100407.63;;;2.79;100.00
81509;BME280;70930;52.412;13.554;2023-12-14T04:20:16;100418.41;;;2.76;100.00
81509;BME280;70930;52.412;13.554;2023-12-14T04:22:43;100417.06;;;2.91;100.00
81509;BME280;70930;52.412;13.554;2023-12-14T04:25:09;100415.53;;;2.88;100.00
81509;BME280;70930;52.412;13.554;2023-12-14T04:27:34;100429.34;;;2.90;99.79
81509;BME280;70930;52.412;13.554;2023-12-14T04:29:59;100421.31;;;2.82;100.00
81509;BME280;70930;52.412;13.554;2023-12-14T04:32:25;100428.91;;;2.85;100.00
81509;BME280;70930;52.412;13.554;2023-12-14T04:34:50;100430.72;;;2.94;100.00
81509;BME280;70930;52.412;13.554;2023-12-14T04:37:16;100442.09;;;3.05;99.61
81509;BME280;70930;52.412;13.554;2023-12-14T04:39:42;100445.94;;;3.01;99.45
81509;BME280;70930;52.412;13.554;2023-12-14T04:42:07;100450.09;;;3.03;99.36
81509;BME280;70930;52.412;13.554;2023-12-14T04:44:32;100450.78;;;3.05;99.87
81509;BME280;70930;52.412;13.554;2023-12-14T04:46:58;100455.06;;;3.06;99.62
81509;BME280;70930;52.412;13.554;2023-12-14T04:49:23;100462.91;;;2.97;99.85
81509;BME280;70930;52.412;13.554;2023-12-14T04:51:48;100457.81;;;3.05;99.04
81509;BME280;70930;52.412;13.554;2023-12-14T04:54:14;100474.69;;;3.12;99.44
81509;BME280;70930;52.412;13.554;2023-12-14T04:56:40;100470.94;;;3.05;99.50
81509;BME280;70930;52.412;13.554;2023-12-14T04:59:06;100465.38;;;2.98;99.45
81509;BME280;70930;52.412;13.554;2023-12-14T05:01:32;100477.09;;;2.94;99.34
81509;BME280;70930;52.412;13.554;2023-12-14T05:03:57;100463.47;;;3.00;98.48
81509;BME280;70930;52.412;13.554;2023-12-14T05:06:22;100464.72;;;3.06;99.08
81509;BME280;70930;52.412;13.554;2023-12-14T05:08:48;100478.13;;;3.03;99.49
81509;BME280;70930;52.412;13.554;2023-12-14T05:11:13;100485.03;;;3.04;99.74
81509;BME280;70930;52.412;13.554;2023-12-14T05:13:39;100494.03;;;3.11;98.95
81509;BME280;70930;52.412;13.554;2023-12-14T05:16:04;100490.09;;;2.95;99.47
81509;BME280;70930;52.412;13.554;2023-12-14T05:18:30;100494.56;;;3.05;99.45
81509;BME280;70930;52.412;13.554;2023-12-14T05:20:55;100487.50;;;3.05;99.52
81509;BME280;70930;52.412;13.554;2023-12-14T05:23:21;100490.84;;;3.07;99.15
81509;BME280;70930;52.412;13.554;2023-12-14T05:25:46;100494.41;;;3.06;99.51
81509;BME280;70930;52.412;13.554;2023-12-14T05:28:12;100503.41;;;3.13;98.88
81509;BME280;70930;52.412;13.554;2023-12-14T05:30:38;100508.06;;;3.00;99.13
81509;BME280;70930;52.412;13.554;2023-12-14T05:33:03;100516.03;;;2.89;99.61
81509;BME280;70930;52.412;13.554;2023-12-14T05:35:29;100526.03;;;3.05;99.51
81509;BME280;70930;52.412;13.554;2023-12-14T05:37:54;100528.41;;;3.08;99.69
81509;BME280;70930;52.412;13.554;2023-12-14T05:40:20;100541.47;;;2.98;99.20
81509;BME280;70930;52.412;13.554;2023-12-14T05:42:45;100547.06;;;3.14;99.70
81509;BME280;70930;52.412;13.554;2023-12-14T05:45:10;100558.75;;;3.10;99.33
81509;BME280;70930;52.412;13.554;2023-12-14T05:47:36;100563.72;;;3.04;99.71
81509;BME280;70930;52.412;13.554;2023-12-14T05:50:03;100562.09;;;3.12;99.27
81509;BME280;70930;52.412;13.554;2023-12-14T05:52:29;100569.00;;;3.13;99.45
81509;BME280;70930;52.412;13.554;2023-12-14T05:54:54;100580.69;;;3.30;99.08
81509;BME280;70930;52.412;13.554;2023-12-14T05:57:19;100569.66;;;3.06;99.25
81509;BME280;70930;52.412;13.554;2023-12-14T05:59:45;100583.34;;;3.09;99.23
81509;BME280;70930;52.412;13.554;2023-12-14T06:02:10;100575.72;;;3.06;99.42
81509;BME280;70930;52.412;13.554;2023-12-14T06:04:35;100586.50;;;3.03;99.24
81509;BME280;70930;52.412;13.554;2023-12-14T06:07:01;100580.94;;;2.97;99.67
81509;BME280;70930;52.412;13.554;2023-12-14T06:09:26;100579.88;;;2.99;99.31
81509;BME280;70930;52.412;13.554;2023-12-14T06:11:59;100578.97;;;2.89;100.00
81509;BME280;70930;52.412;13.554;2023-12-14T06:14:26;100598.50;;;3.06;99.46
81509;BME280;70930;52.412;13.554;2023-12-14T06:16:51;100599.56;;;3.14;99.51
81509;BME280;70930;52.412;13.554;2023-12-14T06:19:16;100599.09;;;3.09;99.44
81509;BME280;70930;52.412;13.554;2023-12-14T06:21:42;100597.91;;;2.92;99.61
81509;BME280;70930;52.412;13.554;2023-12-14T06:24:07;100603.66;;;2.86;100.00
81509;BME280;70930;52.412;13.554;2023-12-14T06:26:32;100600.53;;;2.92;100.00
81509;BME280;70930;52.412;13.554;2023-12-14T06:28:58;100605.50;;;2.95;100.00
81509;BME280;70930;52.412;13.554;2023-12-14T06:31:23;100620.16;;;2.98;100.00
81509;BME280;70930;52.412;13.554;2023-12-14T06:33:48;100617.59;;;3.08;99.65
81509;BME280;70930;52.412;13.554;2023-12-14T06:36:16;100624.28;;;2.91;100.00
81509;BME280;70930;52.412;13.554;2023-12-14T06:38:43;100622.84;;;3.08;99.85
81509;BME280;70930;52.412;13.554;2023-12-14T06:41:08;100612.38;;;3.17;99.30
81509;BME280;70930;52.412;13.554;2023-12-14T06:43:34;100628.53;;;3.13;98.83
81509;BME280;70930;52.412;13.554;2023-12-14T06:45:59;100620.22;;;2.87;99.03
81509;BME280;70930;52.412;13.554;2023-12-14T06:48:25;100618.75;;;2.94;99.47
81509;BME280;70930;52.412;13.554;2023-12-14T06:50:50;100632.44;;;2.98;99.38
81509;BME280;70930;52.412;13.554;2023-12-14T06:53:15;100637.22;;;3.13;99.28
81509;BME280;70930;52.412;13.554;2023-12-14T06:55:41;100640.59;;;3.25;99.26
81509;BME280;70930;52.412;13.554;2023-12-14T06:58:06;100643.25;;;3.04;99.67
81509;BME280;70930;52.412;13.554;2023-12-14T07:00:36;100649.84;;;3.19;98.55
81509;BME280;70930;52.412;13.554;2023-12-14T07:03:02;100649.72;;;3.00;98.61
81509;BME280;70930;52.412;13.554;2023-12-14T07:05:28;100655.66;;;3.02;99.24
81509;BME280;70930;52.412;13.554;2023-12-14T07:07:53;100657.59;;;3.00;98.92
81509;BME280;70930;52.412;13.554;2023-12-14T07:10:19;100670.69;;;3.21;98.31
81509;BME280;70930;52.412;13.554;2023-12-14T07:12:44;100659.19;;;2.91;98.83
81509;BME280;70930;52.412;13.554;2023-12-14T07:15:10;100677.94;;;3.08;99.15
81509;BME280;70930;52.412;13.554;2023-12-14T07:17:35;100688.56;;;3.27;98.26
81509;BME280;70930;52.412;13.554;2023-12-14T07:20:01;100691.44;;;3.24;97.83
81509;BME280;70930;52.412;13.554;2023-12-14T07:22:26;100692.91;;;3.17;97.91
81509;BME280;70930;52.412;13.554;2023-12-14T07:24:51;100695.66;;;3.15;98.42
81509;BME280;70930;52.412;13.554;2023-12-14T07:27:17;100705.63;;;3.22;97.50
81509;BME280;70930;52.412;13.554;2023-12-14T07:29:42;100705.94;;;3.28;97.53
81509;BME280;70930;52.412;13.554;2023-12-14T07:32:07;100715.09;;;3.34;97.45
81509;BME280;70930;52.412;13.554;2023-12-14T07:34:33;100718.75;;;3.22;97.86
81509;BME280;70930;52.412;13.554;2023-12-14T07:36:58;100739.00;;;3.31;97.99
81509;BME280;70930;52.412;13.554;2023-12-14T07:39:24;100732.38;;;3.36;96.71
81509;BME280;70930;52.412;13.554;2023-12-14T07:41:49;100736.63;;;3.28;97.69
81509;BME280;70930;52.412;13.554;2023-12-14T07:44:14;100742.13;;;3.25;97.57
81509;BME280;70930;52.412;13.554;2023-12-14T07:46:40;100745.97;;;3.20;97.87
81509;BME280;70930;52.412;13.554;2023-12-14T07:49:07;100755.00;;;3.28;97.92
81509;BME280;70930;52.412;13.554;2023-12-14T07:51:33;100757.84;;;3.25;97.32
81509;BME280;70930;52.412;13.554;2023-12-14T07:53:58;100762.03;;;3.27;98.20
81509;BME280;70930;52.412;13.554;2023-12-14T07:56:23;100764.03;;;3.35;98.12
81509;BME280;70930;52.412;13.554;2023-12-14T07:58:52;100754.94;;;3.39;97.72
81509;BME280;70930;52.412;13.554;2023-12-14T08:01:18;100759.66;;;3.24;97.45
81509;BME280;70930;52.412;13.554;2023-12-14T08:03:43;100770.53;;;3.19;97.75
81509;BME280;70930;52.412;13.554;2023-12-14T08:06:08;100775.00;;;3.29;96.69
81509;BME280;70930;52.412;13.554;2023-12-14T08:08:33;100773.84;;;3.22;97.59
81509;BME280;70930;52.412;13.554;2023-12-14T08:10:59;100777.41;;;3.32;97.08
81509;BME280;70930;52.412;13.554;2023-12-14T08:13:24;100777.88;;;3.26;97.41
81509;BME280;70930;52.412;13.554;2023-12-14T08:15:49;100783.03;;;3.27;97.09
81509;BME280;70930;52.412;13.554;2023-12-14T08:18:15;100788.09;;;3.19;97.86
81509;BME280;70930;52.412;13.554;2023-12-14T08:20:41;100797.16;;;3.15;98.11
81509;BME280;70930;52.412;13.554;2023-12-14T08:23:06;100800.13;;;3.10;97.48
81509;BME280;70930;52.412;13.554;2023-12-14T08:25:32;100799.41;;;3.19;97.70
81509;BME280;70930;52.412;13.554;2023-12-14T08:27:57;100792.69;;;3.27;97.84
81509;BME280;70930;52.412;13.554;2023-12-14T08:30:23;100800.09;;;3.22;97.92
81509;BME280;70930;52.412;13.554;2023-12-14T08:32:49;100813.00;;;3.13;97.47
81509;BME280;70930;52.412;13.554;2023-12-14T08:35:14;100807.84;;;3.23;98.11
81509;BME280;70930;52.412;13.554;2023-12-14T08:37:40;100816.38;;;3.15;97.79
81509;BME280;70930;52.412;13.554;2023-12-14T08:40:05;100829.44;;;3.27;97.17
81509;BME280;70930;52.412;13.554;2023-12-14T08:42:32;100832.84;;;3.38;97.12
81509;BME280;70930;52.412;13.554;2023-12-14T08:44:57;100831.53;;;3.33;97.77
81509;BME280;70930;52.412;13.554;2023-12-14T08:47:23;100844.47;;;3.45;98.22
81509;BME280;70930;52.412;13.554;2023-12-14T08:49:48;100848.84;;;3.35;97.56
81509;BME280;70930;52.412;13.554;2023-12-14T08:52:14;100851.22;;;3.38;97.56
81509;BME280;70930;52.412;13.554;2023-12-14T08:54:39;100853.75;;;3.29;97.19
81509;BME280;70930;52.412;13.554;2023-12-14T08:57:05;100864.44;;;3.37;97.35
81509;BME280;70930;52.412;13.554;2023-12-14T08:59:31;100873.34;;;3.45;96.25
81509;BME280;70930;52.412;13.554;2023-12-14T09:01:56;100873.09;;;3.28;98.01
81509;BME280;70930;52.412;13.554;2023-12-14T09:04:21;100882.63;;;3.29;97.82
81509;BME280;70930;52.412;13.554;2023-12-14T09:06:47;100883.34;;;3.31;96.83
81509;BME280;70930;52.412;13.554;2023-12-14T09:09:12;100884.38;;;3.39;96.87
81509;BME280;70930;52.412;13.554;2023-12-14T09:11:38;100884.75;;;3.35;97.29
81509;BME280;70930;52.412;13.554;2023-12-14T09:14:03;100888.47;;;3.32;97.75
81509;BME280;70930;52.412;13.554;2023-12-14T09:16:28;100891.22;;;3.31;97.63
81509;BME280;70930;52.412;13.554;2023-12-14T09:18:54;100896.78;;;3.37;97.06
81509;BME280;70930;52.412;13.554;2023-12-14T09:21:19;100887.22;;;3.48;96.61
81509;BME280;70930;52.412;13.554;2023-12-14T09:23:44;100895.38;;;3.33;96.44
81509;BME280;70930;52.412;13.554;2023-12-14T09:26:10;100900.81;;;3.41;95.99
81509;BME280;70930;52.412;13.554;2023-12-14T09:28:36;100901.63;;;3.10;98.97
81509;BME280;70930;52.412;13.554;2023-12-14T09:31:02;100911.78;;;3.14;98.35
81509;BME280;70930;52.412;13.554;2023-12-14T09:33:28;100915.09;;;3.28;98.16
81509;BME280;70930;52.412;13.554;2023-12-14T09:35:53;100915.38;;;3.45;97.32
81509;BME280;70930;52.412;13.554;2023-12-14T09:38:18;100921.97;;;3.40;96.99
81509;BME280;70930;52.412;13.554;2023-12-14T09:40:44;100927.66;;;3.45;96.24
81509;BME280;70930;52.412;13.554;2023-12-14T09:43:10;100930.19;;;3.47;96.58
81509;BME280;70930;52.412;13.554;2023-12-14T09:45:36;100930.28;;;3.45;97.60
81509;BME280;70930;52.412;13.554;2023-12-14T09:48:02;100936.44;;;3.34;96.64
81509;BME280;70930;52.412;13.554;2023-12-14T09:50:28;100929.88;;;3.61;96.60
81509;BME280;70930;52.412;13.554;2023-12-14T09:52:54;100927.75;;;3.55;96.23
81509;BME280;70930;52.412;13.554;2023-12-14T09:55:19;100940.31;;;3.51;96.44
81509;BME280;70930;52.412;13.554;2023-12-14T09:57:45;100945.44;;;3.41;96.66
81509;BME280;70930;52.412;13.554;2023-12-14T10:00:11;100950.47;;;3.33;96.20
81509;BME280;70930;52.412;13.554;2023-12-14T10:02:39;100958.72;;;3.40;96.84
81509;BME280;70930;52.412;13.554;2023-12-14T10:05:08;100952.84;;;3.48;96.26
81509;BME280;70930;52.412;13.554;2023-12-14T10:07:40;100956.50;;;3.56;95.68
81509;BME280;70930;52.412;13.554;2023-12-14T10:10:10;100954.44;;;3.39;96.78
81509;BME280;70930;52.412;13.554;2023-12-14T10:12:50;100961.56;;;3.48;95.72
81509;BME280;70930;52.412;13.554;2023-12-14T10:15:16;100953.22;;;3.43;96.47
81509;BME280;70930;52.412;13.554;2023-12-14T10:17:42;100964.91;;;3.50;96.56
81509;BME280;70930;52.412;13.554;2023-12-14T10:20:07;100964.78;;;3.40;96.81
81509;BME280;70930;52.412;13.554;2023-12-14T10:22:34;100966.91;;;3.58;95.30
81509;BME280;70930;52.412;13.554;2023-12-14T10:25:02;100978.25;;;3.58;94.97
81509;BME280;70930;52.412;13.554;2023-12-14T10:27:28;100977.66;;;3.55;95.85
81509;BME280;70930;52.412;13.554;2023-12-14T10:29:55;100982.59;;;3.69;95.19
81509;BME280;70930;52.412;13.554;2023-12-14T10:32:21;100972.63;;;3.52;94.71
81509;BME280;70930;52.412;13.554;2023-12-14T10:34:48;100974.09;;;3.44;95.41
81509;BME280;70930;52.412;13.554;2023-12-14T10:37:13;100980.69;;;3.39;96.76
81509;BME280;70930;52.412;13.554;2023-12-14T10:39:42;100972.59;;;3.31;95.77
81509;BME280;70930;52.412;13.554;2023-12-14T10:42:09;100980.91;;;3.36;95.72
81509;BME280;70930;52.412;13.554;2023-12-14T10:44:36;100983.78;;;3.33;95.63
81509;BME280;70930;52.412;13.554;2023-12-14T10:47:02;100995.25;;;3.32;95.06
81509;BME280;70930;52.412;13.554;2023-12-14T10:49:29;101001.44;;;3.42;94.75
81509;BME280;70930;52.412;13.554;2023-12-14T10:51:58;101008.63;;;3.06;95.41
81509;BME280;70930;52.412;13.554;2023-12-14T10:54:24;101013.63;;;2.87;97.33
81509;BME280;70930;52.412;13.554;2023-12-14T10:56:57;101012.69;;;2.99;97.44
81509;BME280;70930;52.412;13.554;2023-12-14T10:59:25;101005.28;;;3.15;97.56
81509;BME280;70930;52.412;13.554;2023-12-14T11:01:54;101012.34;;;3.15;96.80
81509;BME280;70930;52.412;13.554;2023-12-14T11:04:22;101010.03;;;3.10;96.05
81509;BME280;70930;52.412;13.554;2023-12-14T11:06:48;101023.06;;;3.12;95.81
81509;BME280;70930;52.412;13.554;2023-12-14T11:09:17;101022.09;;;3.35;96.18
81509;BME280;70930;52.412;13.554;2023-12-14T11:14:15;101021.50;;;3.32;94.26
81509;BME280;70930;52.412;13.554;2023-12-14T11:16:43;101023.66;;;3.04;96.42
81509;BME280;70930;52.412;13.554;2023-12-14T11:21:45;101038.19;;;3.31;95.52
81509;BME280;70930;52.412;13.554;2023-12-14T11:24:12;101015.88;;;3.25;94.76
81509;BME280;70930;52.412;13.554;2023-12-14T11:26:37;101031.75;;;3.01;95.71
81509;BME280;70930;52.412;13.554;2023-12-14T11:29:02;101027.25;;;3.14;97.47
81509;BME280;70930;52.412;13.554;2023-12-14T11:31:29;101033.06;;;2.84;96.59
81509;BME280;70930;52.412;13.554;2023-12-14T11:33:55;101039.88;;;3.09;97.29
81509;BME280;70930;52.412;13.554;2023-12-14T11:36:21;101039.50;;;3.14;98.04
81509;BME280;70930;52.412;13.554;2023-12-14T11:38:47;101049.91;;;3.27;95.56
81509;BME280;70930;52.412;13.554;2023-12-14T11:41:13;101047.38;;;3.14;97.17
81509;BME280;70930;52.412;13.554;2023-12-14T11:43:43;101048.09;;;3.27;95.37
81509;BME280;70930;52.412;13.554;2023-12-14T11:46:10;101053.34;;;3.27;96.90
81509;BME280;70930;52.412;13.554;2023-12-14T11:48:35;101033.41;;;3.36;95.93
81509;BME280;70930;52.412;13.554;2023-12-14T11:51:01;101049.75;;;3.39;95.49
81509;BME280;70930;52.412;13.554;2023-12-14T11:53:26;101049.50;;;3.54;96.06
81509;BME280;70930;52.412;13.554;2023-12-14T11:55:52;101054.00;;;3.63;94.31
81509;BME280;70930;52.412;13.554;2023-12-14T11:58:18;101061.66;;;3.55;94.54
81509;BME280;70930;52.412;13.554;2023-12-14T12:00:44;101056.50;;;3.76;93.25
81509;BME280;70930;52.412;13.554;2023-12-14T12:03:15;101065.94;;;3.67;93.26
81509;BME280;70930;52.412;13.554;2023-12-14T12:05:48;101069.72;;;3.85;93.59
81509;BME280;70930;52.412;13.554;2023-12-14T12:08:15;101074.97;;;3.85;92.10
81509;BME280;70930;52.412;13.554;2023-12-14T12:10:42;101078.25;;;3.66;94.19
81509;BME280;70930;52.412;13.554;2023-12-14T12:13:17;101082.78;;;3.64;93.82
81509;BME280;70930;52.412;13.554;2023-12-14T12:15:44;101094.09;;;3.65;94.51
81509;BME280;70930;52.412;13.554;2023-12-14T12:18:11;101101.00;;;3.77;93.58
81509;BME280;70930;52.412;13.554;2023-12-14T12:20:36;101097.69;;;3.75;93.45
81509;BME280;70930;52.412;13.554;2023-12-14T12:23:02;101091.91;;;3.92;92.28
81509;BME280;70930;52.412;13.554;2023-12-14T12:25:28;101101.34;;;3.84;93.23
81509;BME280;70930;52.412;13.554;2023-12-14T12:27:54;101095.50;;;3.91;92.33
81509;BME280;70930;52.412;13.554;2023-12-14T12:30:21;101101.59;;;3.81;93.31
81509;BME280;70930;52.412;13.554;2023-12-14T12:32:46;101110.63;;;3.99;92.82
81509;BME280;70930;52.412;13.554;2023-12-14T12:35:12;101109.47;;;3.92;90.86
81509;BME280;70930;52.412;13.554;2023-12-14T12:37:38;101111.28;;;3.80;92.70
81509;BME280;70930;52.412;13.554;2023-12-14T12:40:05;101108.28;;;3.85;92.65
81509;BME280;70930;52.412;13.554;2023-12-14T12:42:31;101112.06;;;4.03;92.72
81509;BME280;70930;52.412;13.554;2023-12-14T12:44:56;101120.41;;;4.08;91.87